sensor_id;sensor_type;location;lat;lon;timestamp;P1;durP1;ratioP1;P2;durP2;ratioP2
7334;SDS011;3708;42.632;23.378;2023-07-30T00:00:57;2.92;;;2.42;;
7334;SDS011;3708;42.632;23.378;2023-07-30T00:03:24;2.40;;;2.03;;
7334;SDS011;3708;42.632;23.378;2023-07-30T00:05:51;3.55;;;2.45;;
7334;SDS011;3708;42.632;23.378;2023-07-30T00:08:19;5.50;;;2.67;;
7334;SDS011;3708;42.632;23.378;2023-07-30T00:10:46;3.17;;;2.60;;
7334;SDS011;3708;42.632;23.378;2023-07-30T00:13:14;2.40;;;2.20;;
7334;SDS011;3708;42.632;23.378;2023-07-30T00:15:41;3.75;;;2.40;;
7334;SDS011;3708;42.632;23.378;2023-07-30T00:18:07;2.95;;;2.65;;
7334;SDS011;3708;42.632;23.378;2023-07-30T00:20:34;2.92;;;2.40;;
7334;SDS011;3708;42.632;23.378;2023-07-30T00:23:01;2.63;;;2.40;;
7334;SDS011;3708;42.632;23.378;2023-07-30T00:25:28;3.45;;;2.72;;
7334;SDS011;3708;42.632;23.378;2023-07-30T00:27:55;2.83;;;2.35;;
7334;SDS011;3708;42.632;23.378;2023-07-30T00:30:24;3.47;;;1.98;;
7334;SDS011;3708;42.632;23.378;2023-07-30T00:32:50;4.50;;;2.45;;
7334;SDS011;3708;42.632;23.378;2023-07-30T00:35:17;3.55;;;2.38;;
7334;SDS011;3708;42.632;23.378;2023-07-30T00:37:44;2.63;;;2.40;;
7334;SDS011;3708;42.632;23.378;2023-07-30T00:40:11;3.13;;;2.83;;
7334;SDS011;3708;42.632;23.378;2023-07-30T00:42:38;3.10;;;2.13;;
7334;SDS011;3708;42.632;23.378;2023-07-30T00:45:06;2.22;;;1.92;;
7334;SDS011;3708;42.632;23.378;2023-07-30T00:47:35;2.90;;;2.20;;
7334;SDS011;3708;42.632;23.378;2023-07-30T00:50:03;2.60;;;2.25;;
7334;SDS011;3708;42.632;23.378;2023-07-30T00:52:31;4.43;;;2.72;;
7334;SDS011;3708;42.632;23.378;2023-07-30T00:54:59;3.15;;;2.58;;
7334;SDS011;3708;42.632;23.378;2023-07-30T00:57:28;2.15;;;1.95;;
7334;SDS011;3708;42.632;23.378;2023-07-30T00:59:57;2.40;;;1.92;;
7334;SDS011;3708;42.632;23.378;2023-07-30T01:02:24;2.63;;;2.42;;
7334;SDS011;3708;42.632;23.378;2023-07-30T01:04:52;3.03;;;2.38;;
7334;SDS011;3708;42.632;23.378;2023-07-30T01:07:20;2.55;;;2.13;;
7334;SDS011;3708;42.632;23.378;2023-07-30T01:09:47;2.40;;;2.20;;
7334;SDS011;3708;42.632;23.378;2023-07-30T01:12:14;4.63;;;2.05;;
7334;SDS011;3708;42.632;23.378;2023-07-30T01:14:41;2.85;;;2.25;;
7334;SDS011;3708;42.632;23.378;2023-07-30T01:17:09;2.17;;;1.83;;
7334;SDS011;3708;42.632;23.378;2023-07-30T01:19:37;2.35;;;2.10;;
7334;SDS011;3708;42.632;23.378;2023-07-30T01:22:05;3.83;;;2.10;;
7334;SDS011;3708;42.632;23.378;2023-07-30T01:24:32;2.67;;;2.00;;
7334;SDS011;3708;42.632;23.378;2023-07-30T01:27:01;2.40;;;2.10;;
7334;SDS011;3708;42.632;23.378;2023-07-30T01:29:32;2.17;;;1.98;;
7334;SDS011;3708;42.632;23.378;2023-07-30T01:32:05;3.40;;;2.30;;
7334;SDS011;3708;42.632;23.378;2023-07-30T01:34:34;6.00;;;2.25;;
7334;SDS011;3708;42.632;23.378;2023-07-30T01:37:02;2.13;;;1.88;;
7334;SDS011;3708;42.632;23.378;2023-07-30T01:39:32;4.95;;;2.45;;
7334;SDS011;3708;42.632;23.378;2023-07-30T01:42:03;3.73;;;2.60;;
7334;SDS011;3708;42.632;23.378;2023-07-30T01:44:31;3.77;;;2.57;;
7334;SDS011;3708;42.632;23.378;2023-07-30T01:46:57;2.50;;;2.30;;
7334;SDS011;3708;42.632;23.378;2023-07-30T01:49:24;2.70;;;2.03;;
7334;SDS011;3708;42.632;23.378;2023-07-30T01:51:51;3.27;;;2.20;;
7334;SDS011;3708;42.632;23.378;2023-07-30T01:54:21;2.13;;;1.90;;
7334;SDS011;3708;42.632;23.378;2023-07-30T01:56:49;3.00;;;2.53;;
7334;SDS011;3708;42.632;23.378;2023-07-30T01:59:16;3.10;;;2.30;;
7334;SDS011;3708;42.632;23.378;2023-07-30T02:01:43;2.17;;;1.97;;
7334;SDS011;3708;42.632;23.378;2023-07-30T02:04:10;3.38;;;2.22;;
7334;SDS011;3708;42.632;23.378;2023-07-30T02:06:37;2.90;;;2.57;;
7334;SDS011;3708;42.632;23.378;2023-07-30T02:09:04;3.60;;;2.37;;
7334;SDS011;3708;42.632;23.378;2023-07-30T02:11:31;2.50;;;2.30;;
7334;SDS011;3708;42.632;23.378;2023-07-30T02:13:59;3.10;;;2.30;;
7334;SDS011;3708;42.632;23.378;2023-07-30T02:16:32;3.77;;;2.67;;
7334;SDS011;3708;42.632;23.378;2023-07-30T02:19:01;2.40;;;2.20;;
7334;SDS011;3708;42.632;23.378;2023-07-30T02:21:28;2.43;;;2.10;;
7334;SDS011;3708;42.632;23.378;2023-07-30T02:23:57;2.40;;;2.20;;
7334;SDS011;3708;42.632;23.378;2023-07-30T02:26:25;3.03;;;2.23;;
7334;SDS011;3708;42.632;23.378;2023-07-30T02:28:52;2.97;;;2.33;;
7334;SDS011;3708;42.632;23.378;2023-07-30T02:31:21;4.37;;;2.00;;
7334;SDS011;3708;42.632;23.378;2023-07-30T02:33:51;3.93;;;2.10;;
7334;SDS011;3708;42.632;23.378;2023-07-30T02:36:20;3.20;;;2.23;;
7334;SDS011;3708;42.632;23.378;2023-07-30T02:38:47;4.10;;;2.37;;
7334;SDS011;3708;42.632;23.378;2023-07-30T02:41:13;2.60;;;2.20;;
7334;SDS011;3708;42.632;23.378;2023-07-30T02:43:41;3.13;;;2.30;;
7334;SDS011;3708;42.632;23.378;2023-07-30T02:46:11;3.53;;;2.60;;
7334;SDS011;3708;42.632;23.378;2023-07-30T02:48:40;4.83;;;3.03;;
7334;SDS011;3708;42.632;23.378;2023-07-30T02:51:07;4.00;;;2.50;;
7334;SDS011;3708;42.632;23.378;2023-07-30T02:53:33;3.00;;;2.40;;
7334;SDS011;3708;42.632;23.378;2023-07-30T02:56:01;3.10;;;2.57;;
7334;SDS011;3708;42.632;23.378;2023-07-30T02:58:30;2.60;;;2.40;;
7334;SDS011;3708;42.632;23.378;2023-07-30T03:01:04;5.33;;;2.60;;
7334;SDS011;3708;42.632;23.378;2023-07-30T03:03:31;3.00;;;2.70;;
7334;SDS011;3708;42.632;23.378;2023-07-30T03:06:02;3.13;;;2.43;;
7334;SDS011;3708;42.632;23.378;2023-07-30T03:08:29;7.50;;;2.77;;
7334;SDS011;3708;42.632;23.378;2023-07-30T03:10:57;4.13;;;2.73;;
7334;SDS011;3708;42.632;23.378;2023-07-30T03:13:25;4.03;;;2.60;;
7334;SDS011;3708;42.632;23.378;2023-07-30T03:15:52;4.00;;;2.60;;
7334;SDS011;3708;42.632;23.378;2023-07-30T03:18:19;3.40;;;2.40;;
7334;SDS011;3708;42.632;23.378;2023-07-30T03:20:46;3.20;;;2.20;;
7334;SDS011;3708;42.632;23.378;2023-07-30T03:23:14;3.70;;;2.58;;
7334;SDS011;3708;42.632;23.378;2023-07-30T03:25:41;3.80;;;2.22;;
7334;SDS011;3708;42.632;23.378;2023-07-30T03:28:08;2.80;;;2.33;;
7334;SDS011;3708;42.632;23.378;2023-07-30T03:30:35;3.30;;;2.70;;
7334;SDS011;3708;42.632;23.378;2023-07-30T03:33:02;3.63;;;2.23;;
7334;SDS011;3708;42.632;23.378;2023-07-30T03:35:29;2.40;;;2.17;;
7334;SDS011;3708;42.632;23.378;2023-07-30T03:37:56;4.23;;;2.63;;
7334;SDS011;3708;42.632;23.378;2023-07-30T03:40:24;3.20;;;2.30;;
7334;SDS011;3708;42.632;23.378;2023-07-30T03:42:51;6.73;;;2.57;;
7334;SDS011;3708;42.632;23.378;2023-07-30T03:45:17;4.47;;;2.30;;
7334;SDS011;3708;42.632;23.378;2023-07-30T03:47:44;2.50;;;2.30;;
7334;SDS011;3708;42.632;23.378;2023-07-30T03:50:11;4.20;;;2.53;;
7334;SDS011;3708;42.632;23.378;2023-07-30T03:52:38;2.73;;;2.53;;
7334;SDS011;3708;42.632;23.378;2023-07-30T03:55:05;3.90;;;2.90;;
7334;SDS011;3708;42.632;23.378;2023-07-30T03:57:34;4.03;;;2.67;;
7334;SDS011;3708;42.632;23.378;2023-07-30T04:00:01;2.53;;;2.30;;
7334;SDS011;3708;42.632;23.378;2023-07-30T04:02:29;2.50;;;2.30;;
7334;SDS011;3708;42.632;23.378;2023-07-30T04:04:56;2.73;;;2.33;;
7334;SDS011;3708;42.632;23.378;2023-07-30T04:07:23;6.13;;;2.70;;
7334;SDS011;3708;42.632;23.378;2023-07-30T04:09:49;2.80;;;2.50;;
7334;SDS011;3708;42.632;23.378;2023-07-30T04:12:16;10.27;;;2.90;;
7334;SDS011;3708;42.632;23.378;2023-07-30T04:14:45;3.17;;;2.50;;
7334;SDS011;3708;42.632;23.378;2023-07-30T04:17:12;2.63;;;2.43;;
7334;SDS011;3708;42.632;23.378;2023-07-30T04:19:39;4.03;;;2.97;;
7334;SDS011;3708;42.632;23.378;2023-07-30T04:22:06;3.57;;;2.57;;
7334;SDS011;3708;42.632;23.378;2023-07-30T04:24:33;3.20;;;2.90;;
7334;SDS011;3708;42.632;23.378;2023-07-30T04:27:00;3.07;;;2.77;;
7334;SDS011;3708;42.632;23.378;2023-07-30T04:29:27;5.07;;;2.90;;
7334;SDS011;3708;42.632;23.378;2023-07-30T04:31:55;5.63;;;2.87;;
7334;SDS011;3708;42.632;23.378;2023-07-30T04:34:22;3.47;;;3.13;;
7334;SDS011;3708;42.632;23.378;2023-07-30T04:36:49;3.73;;;2.90;;
7334;SDS011;3708;42.632;23.378;2023-07-30T04:39:16;6.47;;;3.07;;
7334;SDS011;3708;42.632;23.378;2023-07-30T04:41:43;4.20;;;2.57;;
7334;SDS011;3708;42.632;23.378;2023-07-30T04:44:09;2.50;;;2.30;;
7334;SDS011;3708;42.632;23.378;2023-07-30T04:46:36;3.47;;;2.90;;
7334;SDS011;3708;42.632;23.378;2023-07-30T04:49:09;3.47;;;3.17;;
7334;SDS011;3708;42.632;23.378;2023-07-30T04:51:44;3.60;;;3.00;;
7334;SDS011;3708;42.632;23.378;2023-07-30T04:54:16;3.40;;;2.85;;
7334;SDS011;3708;42.632;23.378;2023-07-30T04:56:46;3.05;;;2.72;;
7334;SDS011;3708;42.632;23.378;2023-07-30T04:59:16;2.85;;;2.65;;
7334;SDS011;3708;42.632;23.378;2023-07-30T05:01:48;7.00;;;3.17;;
7334;SDS011;3708;42.632;23.378;2023-07-30T05:04:19;5.07;;;3.00;;
7334;SDS011;3708;42.632;23.378;2023-07-30T05:06:57;3.47;;;2.70;;
7334;SDS011;3708;42.632;23.378;2023-07-30T05:09:25;6.93;;;3.22;;
7334;SDS011;3708;42.632;23.378;2023-07-30T05:11:51;3.85;;;2.95;;
7334;SDS011;3708;42.632;23.378;2023-07-30T05:14:21;3.33;;;2.70;;
7334;SDS011;3708;42.632;23.378;2023-07-30T05:16:48;3.53;;;3.00;;
7334;SDS011;3708;42.632;23.378;2023-07-30T05:19:16;4.55;;;3.08;;
7334;SDS011;3708;42.632;23.378;2023-07-30T05:21:45;3.03;;;2.70;;
7334;SDS011;3708;42.632;23.378;2023-07-30T05:24:12;3.95;;;3.20;;
7334;SDS011;3708;42.632;23.378;2023-07-30T05:26:38;3.90;;;3.30;;
7334;SDS011;3708;42.632;23.378;2023-07-30T05:29:05;5.22;;;2.85;;
7334;SDS011;3708;42.632;23.378;2023-07-30T05:31:32;5.18;;;3.40;;
7334;SDS011;3708;42.632;23.378;2023-07-30T05:33:59;3.88;;;3.47;;
7334;SDS011;3708;42.632;23.378;2023-07-30T05:36:27;3.20;;;2.90;;
7334;SDS011;3708;42.632;23.378;2023-07-30T05:38:54;3.40;;;3.10;;
7334;SDS011;3708;42.632;23.378;2023-07-30T05:41:21;4.18;;;2.80;;
7334;SDS011;3708;42.632;23.378;2023-07-30T05:43:48;3.83;;;2.90;;
7334;SDS011;3708;42.632;23.378;2023-07-30T05:46:14;3.45;;;3.08;;
7334;SDS011;3708;42.632;23.378;2023-07-30T05:48:41;4.05;;;2.78;;
7334;SDS011;3708;42.632;23.378;2023-07-30T05:51:08;6.53;;;3.40;;
7334;SDS011;3708;42.632;23.378;2023-07-30T05:53:36;4.00;;;3.22;;
7334;SDS011;3708;42.632;23.378;2023-07-30T05:56:03;5.57;;;3.28;;
7334;SDS011;3708;42.632;23.378;2023-07-30T05:58:30;3.58;;;3.28;;
7334;SDS011;3708;42.632;23.378;2023-07-30T06:00:57;4.47;;;2.88;;
7334;SDS011;3708;42.632;23.378;2023-07-30T06:03:24;4.00;;;3.25;;
7334;SDS011;3708;42.632;23.378;2023-07-30T06:05:51;4.40;;;2.90;;
7334;SDS011;3708;42.632;23.378;2023-07-30T06:08:17;5.68;;;3.03;;
7334;SDS011;3708;42.632;23.378;2023-07-30T06:10:45;3.80;;;3.13;;
7334;SDS011;3708;42.632;23.378;2023-07-30T06:13:12;5.63;;;3.05;;
7334;SDS011;3708;42.632;23.378;2023-07-30T06:15:39;3.33;;;2.83;;
7334;SDS011;3708;42.632;23.378;2023-07-30T06:18:06;3.40;;;3.10;;
7334;SDS011;3708;42.632;23.378;2023-07-30T06:20:33;4.80;;;2.78;;
7334;SDS011;3708;42.632;23.378;2023-07-30T06:23:00;3.95;;;3.15;;
7334;SDS011;3708;42.632;23.378;2023-07-30T06:25:27;3.30;;;2.67;;
7334;SDS011;3708;42.632;23.378;2023-07-30T06:27:55;3.65;;;3.15;;
7334;SDS011;3708;42.632;23.378;2023-07-30T06:30:23;4.35;;;2.92;;
7334;SDS011;3708;42.632;23.378;2023-07-30T06:32:50;4.80;;;2.65;;
7334;SDS011;3708;42.632;23.378;2023-07-30T06:35:17;4.60;;;3.10;;
7334;SDS011;3708;42.632;23.378;2023-07-30T06:37:44;4.07;;;3.20;;
7334;SDS011;3708;42.632;23.378;2023-07-30T06:40:11;3.55;;;2.92;;
7334;SDS011;3708;42.632;23.378;2023-07-30T06:42:38;5.85;;;3.20;;
7334;SDS011;3708;42.632;23.378;2023-07-30T06:45:07;3.42;;;2.85;;
7334;SDS011;3708;42.632;23.378;2023-07-30T06:47:34;4.97;;;2.90;;
7334;SDS011;3708;42.632;23.378;2023-07-30T06:50:01;3.55;;;2.85;;
7334;SDS011;3708;42.632;23.378;2023-07-30T06:52:29;7.28;;;3.75;;
7334;SDS011;3708;42.632;23.378;2023-07-30T06:54:56;4.00;;;3.60;;
7334;SDS011;3708;42.632;23.378;2023-07-30T06:57:22;3.45;;;2.80;;
7334;SDS011;3708;42.632;23.378;2023-07-30T06:59:49;4.13;;;2.80;;
7334;SDS011;3708;42.632;23.378;2023-07-30T07:02:20;5.47;;;3.05;;
7334;SDS011;3708;42.632;23.378;2023-07-30T07:04:46;4.40;;;2.63;;
7334;SDS011;3708;42.632;23.378;2023-07-30T07:07:13;3.65;;;2.90;;
7334;SDS011;3708;42.632;23.378;2023-07-30T07:09:40;3.40;;;2.90;;
7334;SDS011;3708;42.632;23.378;2023-07-30T07:12:08;4.22;;;2.70;;
7334;SDS011;3708;42.632;23.378;2023-07-30T07:14:35;3.72;;;3.00;;
7334;SDS011;3708;42.632;23.378;2023-07-30T07:17:02;2.65;;;2.40;;
7334;SDS011;3708;42.632;23.378;2023-07-30T07:19:31;3.25;;;2.42;;
7334;SDS011;3708;42.632;23.378;2023-07-30T07:22:01;5.57;;;2.90;;
7334;SDS011;3708;42.632;23.378;2023-07-30T07:24:29;3.22;;;2.72;;
7334;SDS011;3708;42.632;23.378;2023-07-30T07:26:58;3.10;;;2.60;;
7334;SDS011;3708;42.632;23.378;2023-07-30T07:29:25;7.45;;;2.90;;
7334;SDS011;3708;42.632;23.378;2023-07-30T07:31:52;2.97;;;2.70;;
7334;SDS011;3708;42.632;23.378;2023-07-30T07:34:19;5.50;;;2.92;;
7334;SDS011;3708;42.632;23.378;2023-07-30T07:36:48;2.88;;;2.58;;
7334;SDS011;3708;42.632;23.378;2023-07-30T07:39:15;5.13;;;2.85;;
7334;SDS011;3708;42.632;23.378;2023-07-30T07:41:42;3.22;;;2.65;;
7334;SDS011;3708;42.632;23.378;2023-07-30T07:44:08;3.70;;;3.03;;
7334;SDS011;3708;42.632;23.378;2023-07-30T07:46:35;4.18;;;3.17;;
7334;SDS011;3708;42.632;23.378;2023-07-30T07:49:02;5.20;;;3.10;;
7334;SDS011;3708;42.632;23.378;2023-07-30T07:51:29;3.08;;;2.75;;
7334;SDS011;3708;42.632;23.378;2023-07-30T07:53:58;3.88;;;2.97;;
7334;SDS011;3708;42.632;23.378;2023-07-30T07:56:24;5.07;;;2.90;;
7334;SDS011;3708;42.632;23.378;2023-07-30T07:58:51;5.35;;;3.08;;
7334;SDS011;3708;42.632;23.378;2023-07-30T08:01:18;4.30;;;2.90;;
7334;SDS011;3708;42.632;23.378;2023-07-30T08:03:45;4.72;;;2.67;;
7334;SDS011;3708;42.632;23.378;2023-07-30T08:06:12;3.35;;;2.95;;
7334;SDS011;3708;42.632;23.378;2023-07-30T08:08:39;3.47;;;2.83;;
7334;SDS011;3708;42.632;23.378;2023-07-30T08:11:07;3.58;;;2.72;;
7334;SDS011;3708;42.632;23.378;2023-07-30T08:13:35;5.45;;;3.15;;
7334;SDS011;3708;42.632;23.378;2023-07-30T08:16:02;5.18;;;3.33;;
7334;SDS011;3708;42.632;23.378;2023-07-30T08:18:30;5.22;;;2.58;;
7334;SDS011;3708;42.632;23.378;2023-07-30T08:20:56;6.00;;;3.17;;
7334;SDS011;3708;42.632;23.378;2023-07-30T08:23:23;3.42;;;2.42;;
7334;SDS011;3708;42.632;23.378;2023-07-30T08:25:50;5.95;;;2.92;;
7334;SDS011;3708;42.632;23.378;2023-07-30T08:28:18;4.05;;;2.88;;
7334;SDS011;3708;42.632;23.378;2023-07-30T08:30:45;3.90;;;2.40;;
7334;SDS011;3708;42.632;23.378;2023-07-30T08:33:12;3.78;;;3.33;;
7334;SDS011;3708;42.632;23.378;2023-07-30T08:35:39;3.60;;;2.58;;
7334;SDS011;3708;42.632;23.378;2023-07-30T08:38:06;3.42;;;2.75;;
7334;SDS011;3708;42.632;23.378;2023-07-30T08:40:33;4.50;;;2.85;;
7334;SDS011;3708;42.632;23.378;2023-07-30T08:43:00;5.45;;;3.10;;
7334;SDS011;3708;42.632;23.378;2023-07-30T08:45:30;3.53;;;2.83;;
7334;SDS011;3708;42.632;23.378;2023-07-30T08:47:57;5.13;;;2.85;;
7334;SDS011;3708;42.632;23.378;2023-07-30T08:50:24;5.85;;;3.17;;
7334;SDS011;3708;42.632;23.378;2023-07-30T08:52:51;5.05;;;3.25;;
7334;SDS011;3708;42.632;23.378;2023-07-30T08:55:20;3.70;;;2.97;;
7334;SDS011;3708;42.632;23.378;2023-07-30T08:57:49;6.57;;;3.22;;
7334;SDS011;3708;42.632;23.378;2023-07-30T09:00:17;9.70;;;3.72;;
7334;SDS011;3708;42.632;23.378;2023-07-30T09:02:48;3.85;;;3.17;;
7334;SDS011;3708;42.632;23.378;2023-07-30T09:05:18;4.80;;;2.90;;
7334;SDS011;3708;42.632;23.378;2023-07-30T09:07:46;3.97;;;3.22;;
7334;SDS011;3708;42.632;23.378;2023-07-30T09:10:14;3.17;;;2.88;;
7334;SDS011;3708;42.632;23.378;2023-07-30T09:12:41;5.95;;;3.53;;
7334;SDS011;3708;42.632;23.378;2023-07-30T09:15:08;4.70;;;3.05;;
7334;SDS011;3708;42.632;23.378;2023-07-30T09:17:36;6.18;;;3.55;;
7334;SDS011;3708;42.632;23.378;2023-07-30T09:20:06;3.67;;;3.38;;
7334;SDS011;3708;42.632;23.378;2023-07-30T09:22:33;5.75;;;3.10;;
7334;SDS011;3708;42.632;23.378;2023-07-30T09:25:05;6.97;;;2.92;;
7334;SDS011;3708;42.632;23.378;2023-07-30T09:27:33;3.13;;;2.78;;
7334;SDS011;3708;42.632;23.378;2023-07-30T09:30:01;3.38;;;2.85;;
7334;SDS011;3708;42.632;23.378;2023-07-30T09:32:30;3.85;;;3.17;;
7334;SDS011;3708;42.632;23.378;2023-07-30T09:35:03;4.35;;;2.92;;
7334;SDS011;3708;42.632;23.378;2023-07-30T09:37:33;4.47;;;2.90;;
7334;SDS011;3708;42.632;23.378;2023-07-30T09:40:04;3.60;;;2.85;;
7334;SDS011;3708;42.632;23.378;2023-07-30T09:42:31;3.63;;;2.85;;
7334;SDS011;3708;42.632;23.378;2023-07-30T09:45:00;2.50;;;2.20;;
7334;SDS011;3708;42.632;23.378;2023-07-30T09:47:27;4.15;;;3.15;;
7334;SDS011;3708;42.632;23.378;2023-07-30T09:49:57;3.13;;;2.83;;
7334;SDS011;3708;42.632;23.378;2023-07-30T09:52:30;3.70;;;3.28;;
7334;SDS011;3708;42.632;23.378;2023-07-30T09:54:57;4.30;;;2.88;;
7334;SDS011;3708;42.632;23.378;2023-07-30T09:57:25;4.43;;;3.10;;
7334;SDS011;3708;42.632;23.378;2023-07-30T09:59:51;4.72;;;2.88;;
7334;SDS011;3708;42.632;23.378;2023-07-30T10:02:19;4.00;;;2.85;;
7334;SDS011;3708;42.632;23.378;2023-07-30T10:04:47;3.17;;;2.88;;
7334;SDS011;3708;42.632;23.378;2023-07-30T10:07:16;4.25;;;2.85;;
7334;SDS011;3708;42.632;23.378;2023-07-30T10:09:48;2.95;;;2.65;;
7334;SDS011;3708;42.632;23.378;2023-07-30T10:12:20;4.38;;;3.08;;
7334;SDS011;3708;42.632;23.378;2023-07-30T10:14:51;5.93;;;2.83;;
7334;SDS011;3708;42.632;23.378;2023-07-30T10:17:18;3.85;;;3.22;;
7334;SDS011;3708;42.632;23.378;2023-07-30T10:19:46;3.35;;;2.78;;
7334;SDS011;3708;42.632;23.378;2023-07-30T10:22:21;3.40;;;3.10;;
7334;SDS011;3708;42.632;23.378;2023-07-30T10:24:58;4.78;;;2.90;;
7334;SDS011;3708;42.632;23.378;2023-07-30T10:27:26;3.78;;;3.20;;
7334;SDS011;3708;42.632;23.378;2023-07-30T10:30:11;5.20;;;2.92;;
7334;SDS011;3708;42.632;23.378;2023-07-30T10:32:41;5.22;;;3.40;;
7334;SDS011;3708;42.632;23.378;2023-07-30T10:35:08;3.17;;;2.83;;
7334;SDS011;3708;42.632;23.378;2023-07-30T10:37:36;4.00;;;3.33;;
7334;SDS011;3708;42.632;23.378;2023-07-30T10:40:17;3.58;;;2.97;;
7334;SDS011;3708;42.632;23.378;2023-07-30T10:42:44;4.05;;;2.90;;
7334;SDS011;3708;42.632;23.378;2023-07-30T10:45:11;3.53;;;3.22;;
7334;SDS011;3708;42.632;23.378;2023-07-30T10:47:40;3.63;;;3.15;;
7334;SDS011;3708;42.632;23.378;2023-07-30T10:50:07;5.38;;;3.10;;
7334;SDS011;3708;42.632;23.378;2023-07-30T10:52:36;3.45;;;3.15;;
7334;SDS011;3708;42.632;23.378;2023-07-30T10:55:04;5.90;;;3.10;;
7334;SDS011;3708;42.632;23.378;2023-07-30T10:57:32;5.13;;;2.88;;
7334;SDS011;3708;42.632;23.378;2023-07-30T10:59:59;4.97;;;3.30;;
7334;SDS011;3708;42.632;23.378;2023-07-30T11:02:27;3.45;;;3.05;;
7334;SDS011;3708;42.632;23.378;2023-07-30T11:04:54;3.63;;;3.13;;
7334;SDS011;3708;42.632;23.378;2023-07-30T11:07:21;4.93;;;3.55;;
7334;SDS011;3708;42.632;23.378;2023-07-30T11:09:57;4.13;;;3.45;;
7334;SDS011;3708;42.632;23.378;2023-07-30T11:12:25;4.32;;;2.92;;
7334;SDS011;3708;42.632;23.378;2023-07-30T11:15:00;4.32;;;3.28;;
7334;SDS011;3708;42.632;23.378;2023-07-30T11:17:28;3.78;;;3.08;;
7334;SDS011;3708;42.632;23.378;2023-07-30T11:19:55;5.32;;;3.20;;
7334;SDS011;3708;42.632;23.378;2023-07-30T11:22:28;5.18;;;3.00;;
7334;SDS011;3708;42.632;23.378;2023-07-30T11:24:56;4.93;;;3.67;;
7334;SDS011;3708;42.632;23.378;2023-07-30T11:27:22;5.97;;;3.25;;
7334;SDS011;3708;42.632;23.378;2023-07-30T11:29:53;4.50;;;3.22;;
7334;SDS011;3708;42.632;23.378;2023-07-30T11:32:23;3.55;;;3.22;;
7334;SDS011;3708;42.632;23.378;2023-07-30T11:34:51;3.97;;;3.55;;
7334;SDS011;3708;42.632;23.378;2023-07-30T11:37:19;4.07;;;3.47;;
7334;SDS011;3708;42.632;23.378;2023-07-30T11:39:52;3.90;;;3.53;;
7334;SDS011;3708;42.632;23.378;2023-07-30T11:42:19;5.22;;;3.50;;
7334;SDS011;3708;42.632;23.378;2023-07-30T11:44:46;3.63;;;3.03;;
7334;SDS011;3708;42.632;23.378;2023-07-30T11:47:20;5.28;;;3.15;;
7334;SDS011;3708;42.632;23.378;2023-07-30T11:49:56;6.43;;;3.30;;
7334;SDS011;3708;42.632;23.378;2023-07-30T11:52:23;5.25;;;3.50;;
7334;SDS011;3708;42.632;23.378;2023-07-30T11:54:59;4.00;;;3.35;;
7334;SDS011;3708;42.632;23.378;2023-07-30T11:57:32;4.22;;;3.63;;
7334;SDS011;3708;42.632;23.378;2023-07-30T11:59:59;5.22;;;2.78;;
7334;SDS011;3708;42.632;23.378;2023-07-30T12:02:28;3.60;;;2.97;;
7334;SDS011;3708;42.632;23.378;2023-07-30T12:04:57;3.22;;;2.67;;
7334;SDS011;3708;42.632;23.378;2023-07-30T12:07:24;6.82;;;3.08;;
7334;SDS011;3708;42.632;23.378;2023-07-30T12:09:51;3.47;;;3.00;;
7334;SDS011;3708;42.632;23.378;2023-07-30T12:12:18;5.57;;;3.30;;
7334;SDS011;3708;42.632;23.378;2023-07-30T12:14:52;4.40;;;3.58;;
7334;SDS011;3708;42.632;23.378;2023-07-30T12:17:20;3.42;;;3.13;;
7334;SDS011;3708;42.632;23.378;2023-07-30T12:19:48;3.45;;;3.03;;
7334;SDS011;3708;42.632;23.378;2023-07-30T12:22:16;5.25;;;3.33;;
7334;SDS011;3708;42.632;23.378;2023-07-30T12:24:43;4.18;;;3.63;;
7334;SDS011;3708;42.632;23.378;2023-07-30T12:27:09;3.97;;;3.28;;
7334;SDS011;3708;42.632;23.378;2023-07-30T12:29:36;3.53;;;3.17;;
7334;SDS011;3708;42.632;23.378;2023-07-30T12:32:03;4.20;;;3.50;;
7334;SDS011;3708;42.632;23.378;2023-07-30T12:34:30;4.47;;;2.88;;
7334;SDS011;3708;42.632;23.378;2023-07-30T12:36:57;4.20;;;2.90;;
7334;SDS011;3708;42.632;23.378;2023-07-30T12:39:26;3.75;;;3.08;;
7334;SDS011;3708;42.632;23.378;2023-07-30T12:41:53;4.53;;;3.22;;
7334;SDS011;3708;42.632;23.378;2023-07-30T12:44:20;4.95;;;3.35;;
7334;SDS011;3708;42.632;23.378;2023-07-30T12:46:47;3.63;;;3.20;;
7334;SDS011;3708;42.632;23.378;2023-07-30T12:49:13;4.95;;;3.38;;
7334;SDS011;3708;42.632;23.378;2023-07-30T12:51:40;4.82;;;3.38;;
7334;SDS011;3708;42.632;23.378;2023-07-30T12:54:07;4.57;;;3.90;;
7334;SDS011;3708;42.632;23.378;2023-07-30T12:56:35;4.18;;;3.72;;
7334;SDS011;3708;42.632;23.378;2023-07-30T12:59:02;5.10;;;3.58;;
7334;SDS011;3708;42.632;23.378;2023-07-30T13:01:29;4.50;;;3.65;;
7334;SDS011;3708;42.632;23.378;2023-07-30T13:03:56;3.30;;;3.00;;
7334;SDS011;3708;42.632;23.378;2023-07-30T13:06:27;6.47;;;3.35;;
7334;SDS011;3708;42.632;23.378;2023-07-30T13:08:54;5.15;;;3.28;;
7334;SDS011;3708;42.632;23.378;2023-07-30T13:11:21;3.40;;;2.97;;
7334;SDS011;3708;42.632;23.378;2023-07-30T13:16:54;6.20;;;3.58;;
7334;SDS011;3708;42.632;23.378;2023-07-30T13:19:21;3.38;;;3.08;;
7334;SDS011;3708;42.632;23.378;2023-07-30T13:21:48;5.13;;;3.55;;
7334;SDS011;3708;42.632;23.378;2023-07-30T13:24:15;8.32;;;3.70;;
7334;SDS011;3708;42.632;23.378;2023-07-30T13:26:41;4.53;;;3.47;;
7334;SDS011;3708;42.632;23.378;2023-07-30T13:29:08;4.25;;;3.40;;
7334;SDS011;3708;42.632;23.378;2023-07-30T13:31:36;3.65;;;3.22;;
7334;SDS011;3708;42.632;23.378;2023-07-30T13:34:03;3.92;;;3.53;;
7334;SDS011;3708;42.632;23.378;2023-07-30T13:36:30;3.92;;;3.53;;
7334;SDS011;3708;42.632;23.378;2023-07-30T13:38:57;4.22;;;3.45;;
7334;SDS011;3708;42.632;23.378;2023-07-30T13:41:24;4.30;;;3.75;;
7334;SDS011;3708;42.632;23.378;2023-07-30T13:43:51;4.10;;;2.97;;
7334;SDS011;3708;42.632;23.378;2023-07-30T13:46:18;4.50;;;3.72;;
7334;SDS011;3708;42.632;23.378;2023-07-30T13:48:46;3.65;;;3.35;;
7334;SDS011;3708;42.632;23.378;2023-07-30T13:51:13;4.13;;;3.50;;
7334;SDS011;3708;42.632;23.378;2023-07-30T13:53:40;9.93;;;4.20;;
7334;SDS011;3708;42.632;23.378;2023-07-30T13:56:06;4.72;;;3.92;;
7334;SDS011;3708;42.632;23.378;2023-07-30T13:58:33;4.57;;;3.78;;
7334;SDS011;3708;42.632;23.378;2023-07-30T14:01:00;5.43;;;3.42;;
7334;SDS011;3708;42.632;23.378;2023-07-30T14:03:27;5.55;;;4.00;;
7334;SDS011;3708;42.632;23.378;2023-07-30T14:05:55;4.22;;;3.45;;
7334;SDS011;3708;42.632;23.378;2023-07-30T14:08:22;4.20;;;3.28;;
7334;SDS011;3708;42.632;23.378;2023-07-30T14:10:49;7.80;;;3.42;;
7334;SDS011;3708;42.632;23.378;2023-07-30T14:13:16;6.00;;;3.10;;
7334;SDS011;3708;42.632;23.378;2023-07-30T14:15:43;4.28;;;3.63;;
7334;SDS011;3708;42.632;23.378;2023-07-30T14:18:10;7.15;;;4.03;;
7334;SDS011;3708;42.632;23.378;2023-07-30T14:20:37;4.97;;;3.63;;
7334;SDS011;3708;42.632;23.378;2023-07-30T14:23:05;3.88;;;3.47;;
7334;SDS011;3708;42.632;23.378;2023-07-30T14:25:32;4.50;;;3.72;;
7334;SDS011;3708;42.632;23.378;2023-07-30T14:27:59;3.47;;;2.97;;
7334;SDS011;3708;42.632;23.378;2023-07-30T14:30:25;3.75;;;3.42;;
7334;SDS011;3708;42.632;23.378;2023-07-30T14:32:53;4.30;;;3.90;;
7334;SDS011;3708;42.632;23.378;2023-07-30T14:35:19;7.40;;;3.60;;
7334;SDS011;3708;42.632;23.378;2023-07-30T14:37:46;6.80;;;3.90;;
7334;SDS011;3708;42.632;23.378;2023-07-30T14:40:15;3.88;;;3.10;;
7334;SDS011;3708;42.632;23.378;2023-07-30T14:42:42;5.85;;;4.22;;
7334;SDS011;3708;42.632;23.378;2023-07-30T14:45:09;5.53;;;4.28;;
7334;SDS011;3708;42.632;23.378;2023-07-30T14:47:36;3.72;;;3.33;;
7334;SDS011;3708;42.632;23.378;2023-07-30T14:50:04;3.90;;;3.50;;
7334;SDS011;3708;42.632;23.378;2023-07-30T14:52:31;4.50;;;3.45;;
7334;SDS011;3708;42.632;23.378;2023-07-30T14:54:58;5.07;;;3.65;;
7334;SDS011;3708;42.632;23.378;2023-07-30T14:57:26;5.15;;;3.28;;
7334;SDS011;3708;42.632;23.378;2023-07-30T14:59:53;4.72;;;3.78;;
7334;SDS011;3708;42.632;23.378;2023-07-30T15:02:20;7.03;;;3.42;;
7334;SDS011;3708;42.632;23.378;2023-07-30T15:04:47;4.10;;;3.70;;
7334;SDS011;3708;42.632;23.378;2023-07-30T15:07:14;6.78;;;3.83;;